createdAt,value
2023-07-16T00:04:47.061Z,20.44
2023-07-16T00:09:48.686Z,20.34
2023-07-16T00:14:50.391Z,20.35
2023-07-16T00:19:51.933Z,20.32
2023-07-16T00:24:53.393Z,20.30
2023-07-16T00:29:55.075Z,20.31
2023-07-16T00:34:56.544Z,20.25
2023-07-16T00:39:58.036Z,20.24
2023-07-16T00:44:59.665Z,20.26
2023-07-16T00:50:01.176Z,20.05
2023-07-16T00:55:03.451Z,19.82
2023-07-16T01:00:05.448Z,19.83
2023-07-16T01:05:07.223Z,19.77
2023-07-16T01:10:09.508Z,19.58
2023-07-16T01:15:11.606Z,19.56
2023-07-16T01:20:13.454Z,19.49
2023-07-16T01:25:33.354Z,19.49
2023-07-16T01:30:39.107Z,19.30
2023-07-16T01:35:41.848Z,19.32
2023-07-16T01:40:43.458Z,19.30
2023-07-16T01:45:45.779Z,19.35
2023-07-16T01:50:47.285Z,19.28
2023-07-16T01:55:48.977Z,19.02
2023-07-16T02:00:53.351Z,18.97
2023-07-16T02:05:54.880Z,18.93
2023-07-16T02:10:56.390Z,18.98
2023-07-16T02:15:58.028Z,18.77
2023-07-16T02:20:59.747Z,18.67
2023-07-16T02:26:02.109Z,18.72
2023-07-16T02:31:04.230Z,18.66
2023-07-16T02:36:06.005Z,18.55
2023-07-16T02:41:07.442Z,18.51
2023-07-16T02:46:08.939Z,18.42
2023-07-16T02:51:10.560Z,18.39
2023-07-16T02:56:12.585Z,18.42
2023-07-16T03:01:15.274Z,18.26
2023-07-16T03:06:19.330Z,18.17
2023-07-16T03:11:22.927Z,18.11
2023-07-16T03:16:24.677Z,18.21
2023-07-16T03:21:26.698Z,18.20
2023-07-16T03:26:28.308Z,18.14
2023-07-16T03:31:29.912Z,18.10
2023-07-16T03:36:32.000Z,18.19
2023-07-16T03:41:33.451Z,18.19
2023-07-16T03:46:35.020Z,17.93
2023-07-16T03:51:36.669Z,17.88
2023-07-16T03:56:38.414Z,18.05
2023-07-16T04:01:40.221Z,17.94
2023-07-16T04:06:41.848Z,17.89
2023-07-16T04:11:43.283Z,17.91
2023-07-16T04:16:44.810Z,17.93
2023-07-16T04:21:46.278Z,17.99
2023-07-16T04:26:47.709Z,17.98
2023-07-16T04:31:49.316Z,18.04
2023-07-16T04:36:50.838Z,18.16
2023-07-16T04:41:52.243Z,18.19
2023-07-16T04:46:53.778Z,18.21
2023-07-16T04:51:55.438Z,18.27
2023-07-16T04:56:56.857Z,18.56
2023-07-16T05:01:58.711Z,18.44
2023-07-16T05:07:00.247Z,18.36
2023-07-16T05:12:01.663Z,18.74
2023-07-16T05:17:03.336Z,18.77
2023-07-16T05:22:05.268Z,18.60
2023-07-16T05:27:06.858Z,19.16
2023-07-16T05:32:09.052Z,18.85
2023-07-16T05:37:10.606Z,19.10
2023-07-16T05:42:12.073Z,18.76
2023-07-16T05:47:13.517Z,18.87
2023-07-16T05:52:15.080Z,18.94
2023-07-16T05:57:16.490Z,19.05
2023-07-16T06:02:18.047Z,18.92
2023-07-16T06:07:19.760Z,19.03
2023-07-16T06:12:21.179Z,19.30
2023-07-16T06:17:24.823Z,19.45
2023-07-16T06:22:26.742Z,19.35
2023-07-16T06:27:28.923Z,19.64
2023-07-16T06:32:30.379Z,20.81
2023-07-16T06:37:32.134Z,21.02
2023-07-16T06:42:33.685Z,21.07
2023-07-16T06:47:35.186Z,22.46
2023-07-16T06:52:36.937Z,22.45
2023-07-16T06:57:38.568Z,22.41
2023-07-16T07:02:40.196Z,23.75
2023-07-16T07:07:41.769Z,23.62
2023-07-16T07:12:43.273Z,22.69
2023-07-16T07:17:47.349Z,23.27
2023-07-16T07:22:49.078Z,25.35
2023-07-16T07:27:50.744Z,23.66
2023-07-16T07:32:52.215Z,25.49
2023-07-16T07:37:54.078Z,23.96
2023-07-16T07:42:55.468Z,25.51
2023-07-16T07:47:57.164Z,23.64
2023-07-16T07:52:58.644Z,25.40
2023-07-16T07:58:00.747Z,24.70
2023-07-16T08:03:02.312Z,26.42
2023-07-16T08:08:06.435Z,25.95
2023-07-16T08:13:08.346Z,25.28
2023-07-16T08:18:10.829Z,24.94
2023-07-16T08:23:13.170Z,23.98
2023-07-16T08:28:14.692Z,26.49
2023-07-16T08:33:16.339Z,26.20
2023-07-16T08:38:17.988Z,27.48
2023-07-16T08:43:21.429Z,26.65
2023-07-16T08:48:23.592Z,26.94
2023-07-16T08:53:25.082Z,28.50
2023-07-16T08:58:26.604Z,29.48
2023-07-16T09:03:28.755Z,28.16
2023-07-16T09:08:30.257Z,30.90
2023-07-16T09:13:31.872Z,28.32
2023-07-16T09:18:34.024Z,27.64
2023-07-16T09:23:36.000Z,29.47
2023-07-16T09:28:37.744Z,27.53
2023-07-16T09:33:39.549Z,27.97
2023-07-16T09:38:45.636Z,28.25
2023-07-16T09:43:47.476Z,25.81
2023-07-16T09:48:49.153Z,29.35
2023-07-16T09:53:51.978Z,27.61
2023-07-16T09:58:54.846Z,28.22
2023-07-16T10:03:57.699Z,27.36
2023-07-16T10:08:59.403Z,31.48
2023-07-16T10:14:04.922Z,27.27
2023-07-16T10:19:06.486Z,29.00
2023-07-16T10:24:17.979Z,28.91
2023-07-16T10:29:19.465Z,29.74
2023-07-16T10:34:24.007Z,27.51
2023-07-16T10:39:25.502Z,25.78
2023-07-16T10:44:28.587Z,26.25
2023-07-16T10:49:30.340Z,25.90
2023-07-16T10:54:32.027Z,25.43
2023-07-16T10:59:36.890Z,25.31
2023-07-16T11:04:38.751Z,25.93
2023-07-16T11:10:06.911Z,26.45
2023-07-16T11:15:11.931Z,26.23
2023-07-16T11:20:13.802Z,26.23
2023-07-16T11:25:15.773Z,27.27
2023-07-16T11:30:24.386Z,26.79
2023-07-16T11:35:26.921Z,26.03
2023-07-16T11:40:28.399Z,25.65
2023-07-16T11:45:29.882Z,26.82
2023-07-16T11:50:32.654Z,26.33
2023-07-16T11:55:35.031Z,26.04
2023-07-16T12:00:36.823Z,26.97
2023-07-16T12:05:51.669Z,25.53
2023-07-16T12:10:55.032Z,27.56
2023-07-16T12:15:56.577Z,27.58
2023-07-16T12:20:58.084Z,27.63
2023-07-16T12:25:59.724Z,29.42
2023-07-16T12:31:01.242Z,28.08
2023-07-16T12:36:02.723Z,27.16
2023-07-16T12:41:04.365Z,28.02
2023-07-16T12:46:08.383Z,28.03
2023-07-16T12:51:09.957Z,27.21
2023-07-16T12:56:11.483Z,28.26
2023-07-16T13:01:13.103Z,25.38
2023-07-16T13:06:14.780Z,27.70
2023-07-16T13:11:16.491Z,27.05
2023-07-16T13:16:18.342Z,27.18
2023-07-16T13:21:20.147Z,27.70
2023-07-16T13:26:21.850Z,27.67
2023-07-16T13:31:23.488Z,26.93
2023-07-16T13:36:25.083Z,26.58
2023-07-16T13:41:26.689Z,26.18
2023-07-16T13:46:28.293Z,25.98
2023-07-16T13:51:29.777Z,27.79
2023-07-16T13:56:31.450Z,27.18
2023-07-16T14:01:33.077Z,25.30
2023-07-16T14:06:35.132Z,27.13
2023-07-16T14:11:36.617Z,28.34
2023-07-16T14:16:38.172Z,27.37
2023-07-16T14:21:40.196Z,26.28
2023-07-16T14:26:41.832Z,27.75
2023-07-16T14:31:43.329Z,28.06
2023-07-16T14:36:44.806Z,26.10
2023-07-16T14:41:46.669Z,27.07
2023-07-16T14:46:48.295Z,25.98
2023-07-16T14:51:49.886Z,26.32
2023-07-16T14:56:51.348Z,26.65
2023-07-16T15:01:52.885Z,26.44
2023-07-16T15:06:54.414Z,27.36
2023-07-16T15:11:56.058Z,27.50
2023-07-16T15:16:57.763Z,26.82
2023-07-16T15:21:59.323Z,26.62
2023-07-16T15:27:00.819Z,27.70
2023-07-16T15:32:03.340Z,28.32
2023-07-16T15:37:05.188Z,26.31
2023-07-16T15:42:19.277Z,26.51
2023-07-16T15:47:20.854Z,26.42
2023-07-16T15:52:26.424Z,26.13
2023-07-16T15:57:28.528Z,25.94
2023-07-16T16:02:30.012Z,25.13
2023-07-16T16:07:31.560Z,26.42
2023-07-16T16:12:33.379Z,25.08
2023-07-16T16:17:35.211Z,25.82
2023-07-16T16:22:36.961Z,25.84
2023-07-16T16:27:38.683Z,25.49
2023-07-16T16:32:41.225Z,25.58
2023-07-16T16:37:42.921Z,25.58
2023-07-16T16:42:44.886Z,25.64
2023-07-16T16:47:46.390Z,26.09
2023-07-16T16:52:48.028Z,25.67
2023-07-16T16:57:49.600Z,26.38
2023-07-16T17:02:51.203Z,26.70
2023-07-16T17:07:52.823Z,26.15
2023-07-16T17:12:54.894Z,25.98
2023-07-16T17:17:59.908Z,24.92
2023-07-16T17:23:01.971Z,25.63
2023-07-16T17:28:03.726Z,25.29
2023-07-16T17:33:08.744Z,25.47
2023-07-16T17:38:10.587Z,25.15
2023-07-16T17:43:15.474Z,25.07
2023-07-16T17:48:17.907Z,25.18
2023-07-16T17:53:19.688Z,24.94
2023-07-16T17:58:21.541Z,24.37
2023-07-16T18:03:23.213Z,24.46
2023-07-16T18:08:25.130Z,24.23
2023-07-16T18:13:26.688Z,24.04
2023-07-16T18:18:31.901Z,24.21
2023-07-16T18:23:34.450Z,23.65
2023-07-16T18:28:36.587Z,23.70
2023-07-16T18:33:38.464Z,24.00
2023-07-16T18:38:40.453Z,23.57
2023-07-16T18:43:42.986Z,23.87
2023-07-16T18:48:45.146Z,23.37
2023-07-16T19:10:44.760Z,23.19
2023-07-16T19:15:52.985Z,23.26
2023-07-16T19:20:57.616Z,22.85
2023-07-16T19:26:16.583Z,22.90
2023-07-16T19:31:21.964Z,22.72
2023-07-16T19:36:29.129Z,22.39
2023-07-16T19:41:31.743Z,22.32
2023-07-16T19:46:33.641Z,22.29
2023-07-16T19:51:35.371Z,22.25
2023-07-16T19:56:36.948Z,22.27
2023-07-16T20:01:38.823Z,22.24
2023-07-16T20:06:45.654Z,21.99
2023-07-16T20:11:56.796Z,21.94
2023-07-16T20:16:58.520Z,22.02
2023-07-16T20:22:00.290Z,21.92
2023-07-16T20:27:02.361Z,21.94
2023-07-16T20:32:07.538Z,22.02
2023-07-16T20:37:09.408Z,21.91
2023-07-16T20:42:11.645Z,21.74
2023-07-16T20:47:13.183Z,21.66
2023-07-16T20:52:14.779Z,21.81
2023-07-16T20:57:16.502Z,21.76
2023-07-16T21:02:18.947Z,21.70
2023-07-16T21:07:20.606Z,21.60
2023-07-16T21:12:22.348Z,21.77
2023-07-16T21:17:24.874Z,21.66
2023-07-16T21:22:29.665Z,21.50
2023-07-16T21:27:40.694Z,21.39
2023-07-16T21:32:42.419Z,21.51
2023-07-16T21:37:45.028Z,21.56
2023-07-16T21:42:46.602Z,21.29
2023-07-16T21:47:48.307Z,21.26
2023-07-16T21:52:51.939Z,21.26
2023-07-16T21:57:53.795Z,21.17
2023-07-16T22:02:55.863Z,21.01
2023-07-16T22:07:57.597Z,21.06
2023-07-16T22:12:59.583Z,20.86
2023-07-16T22:18:01.997Z,20.93
2023-07-16T22:23:03.737Z,20.74
2023-07-16T22:28:06.758Z,20.79
2023-07-16T22:33:11.361Z,20.69
2023-07-16T22:38:15.673Z,20.69
2023-07-16T22:43:18.203Z,20.71
2023-07-16T22:48:19.876Z,20.71
2023-07-16T22:53:21.920Z,20.74
2023-07-16T22:58:23.615Z,20.55
2023-07-16T23:03:25.437Z,20.44
2023-07-16T23:08:27.050Z,20.29
2023-07-16T23:13:30.007Z,20.00
2023-07-16T23:18:32.080Z,19.90
2023-07-16T23:23:34.125Z,19.73
2023-07-16T23:28:35.891Z,19.54
2023-07-16T23:33:37.519Z,19.32
2023-07-16T23:38:39.118Z,18.95
2023-07-16T23:43:40.821Z,19.32
2023-07-16T23:48:42.287Z,19.26
2023-07-16T23:53:43.909Z,19.28
2023-07-16T23:58:51.505Z,19.33
